Oconto Falls, WI

12:56 PM CDT on March 29, 2015 (GMT -0500)
Sampson Valley Vineyard | | Change Station
CLOSE
Current Station
Personal Weather Station
Location: Sampson, WI
Elevation: 787 ft
Nearby Weather Stations
Active Advisory: Special Statement

Elev 787 ft 44.76 °N, 88.18 °W | Updated 11 seconds ago

Snow
Snow
33.6 °F
Feels Like 34 °F
N
0.0
Wind Variable Wind from North
Gusts 0.0 mph

Today
High -- | Low -- °F
--% Chance of Precip.
Yesterday
High -- | Low -- °F
Precip. -- in
6:39 AM 7:16 PM
Waxing Gibbous, 73% visible
Pressure 29.66 in
Visibility 3.0 miles
Clouds Overcast 1000 ft
Windchill 34 °F
Dew Point 29 °F
Humidity 83%
Rainfall 0.00 in
Snow Depth Not available.
UV 2 out of 12
Pollen 2.30 out of 12
Air Quality Not available.
Flu Activity Not available.
METAR KOCQ 291735Z AUTO 20015G21KT 3SM OVC010 00/00 A2966 RMK AO1 T00020000

More Conditions Fewer Conditions

Pressure 29.66 in
Visibility 3.0 miles
Clouds Overcast 1000 ft
Windchill 34 °F
Dew Point 29 °F
Humidity 83%
Rainfall 0.00 in
Snow Depth Not available.
UV 2 out of 12
Pollen 2.30 out of 12
Air Quality Not available.
Flu Activity Not available.
METAR KOCQ 291735Z AUTO 20015G21KT 3SM OVC010 00/00 A2966 RMK AO1 T00020000

More Conditions Fewer Conditions

10-Day Weather Forecast

Almanac

Astronomy

Mar. 29, 2015 Rise Set
Actual Time
Civil Twilight
Nautical Twilight
Astronomical Twilight
Moon
Length of Visible Light
Length of Day
Tomorrow will be .
, % of the Moon is Illuminated

Today's Extremes

State Highs State Lows

Community

WunderPhotos

Upload Photos

1,809,307 photos uploaded!

WunderBlogs® & News

Nearby

Air Quality

  Air Quality AQ Index Pollutant
Not available.

Snow Depth

Station Depth Elevation

Earthquake Activity

City Distance Mag. Time & Date
Minimum magnitude displayed is 2.5.

Coastal Water Temperatures

Place Temperature

Stations

Nearby Weather Stations

Station Location Temp. Windchill Dew Point Humidity Wind Precip. Elev Updated Type
                   
Special Statement
Statement as of 10:53 AM CDT on March 29, 2015

Snow and sleet will continue this morning as a quick moving front
approaches the area. This combination of wintry precipitation will
create hazardous travel for a time as roads become slick. Less
than an inch of total snow accumulation is expected. The snow
will melt this afternoon as temperatures warm above freezing and
precipitation changes to mainly rain.